Time;durP1;ratioP1;P1;durP2;ratioP2;P2;SDS_P1;SDS_P2;PMS_P1;PMS_P2;Temp;Humidity;BMP_temperature;BMP_pressure;BME280_temperature;BME280_humidity;BME280_pressure;Samples;Min_cycle;Max_cycle;Signal;HPM_P1;HPM_P2
2022/05/16 00:00:15;;;;;;;12.68;4.50;;;;;;;;;;5039163;28;20086;-67
2022/05/16 00:02:41;;;;;;;13.65;4.80;;;;;;;;;;5040946;28;20040;-68
2022/05/16 00:05:06;;;;;;;14.85;4.28;;;;;;;;;;5021709;28;20178;-68
2022/05/16 00:07:31;;;;;;;19.65;5.15;;;;;;;;;;5041381;28;20072;-67
2022/05/16 00:09:57;;;;;;;13.70;4.32;;;;;;;;;;5042098;28;20517;-68
2022/05/16 00:12:25;;;;;;;17.30;4.47;;;;;;;;;;5026583;28;20630;-68
2022/05/16 00:14:50;;;;;;;12.85;4.28;;;;;;;;;;5043902;28;22757;-67
2022/05/16 00:17:16;;;;;;;17.08;4.18;;;;;;;;;;5043824;28;20029;-67
2022/05/16 00:19:42;;;;;;;12.07;4.50;;;;;;;;;;5044228;28;20037;-67
2022/05/16 00:22:07;;;;;;;13.27;4.53;;;;;;;;;;5039967;28;20034;-68
2022/05/16 00:24:32;;;;;;;12.18;4.05;;;;;;;;;;5059244;28;20033;-67
2022/05/16 00:27:00;;;;;;;13.38;4.25;;;;;;;;;;5038000;28;20041;-67
2022/05/16 00:29:45;;;;;;;13.45;4.05;;;;;;;;;;4980496;28;20049;-67
2022/05/16 00:32:13;;;;;;;14.85;3.30;;;;;;;;;;4981642;28;20034;-67
2022/05/16 00:34:38;;;;;;;12.57;4.13;;;;;;;;;;4988742;28;20038;-67
2022/05/16 00:37:06;;;;;;;19.70;4.00;;;;;;;;;;4964529;28;20034;-66
2022/05/16 00:39:31;;;;;;;11.15;3.60;;;;;;;;;;4979452;28;20117;-68
2022/05/16 00:41:57;;;;;;;16.20;4.00;;;;;;;;;;4979000;28;20110;-67
2022/05/16 00:44:22;;;;;;;13.30;4.05;;;;;;;;;;4966866;28;20120;-67
2022/05/16 00:46:51;;;;;;;13.35;3.92;;;;;;;;;;4965302;28;20042;-67
2022/05/16 00:49:35;;;;;;;13.48;3.88;;;;;;;;;;4954324;28;20045;-67
2022/05/16 00:52:00;;;;;;;13.57;4.13;;;;;;;;;;4968765;28;20038;-66
2022/05/16 00:54:34;;;;;;;13.02;3.72;;;;;;;;;;4972044;28;20034;-67
2022/05/16 00:57:08;;;;;;;15.55;3.72;;;;;;;;;;4969372;28;20094;-68
2022/05/16 00:59:38;;;;;;;13.68;4.15;;;;;;;;;;4968986;28;20035;-66
2022/05/16 01:04:50;;;;;;;12.23;3.30;;;;;;;;;;5033954;28;20037;-67
2022/05/16 01:07:22;;;;;;;13.48;3.40;;;;;;;;;;5045587;28;20496;-67
2022/05/16 01:09:49;;;;;;;15.68;4.05;;;;;;;;;;5037168;28;20562;-67
2022/05/16 01:12:15;;;;;;;12.65;4.00;;;;;;;;;;5039416;28;20111;-68
2022/05/16 01:14:41;;;;;;;11.18;3.72;;;;;;;;;;5030809;28;22584;-68
2022/05/16 01:17:07;;;;;;;13.32;4.47;;;;;;;;;;5043531;28;20060;-67
2022/05/16 01:19:34;;;;;;;13.35;3.97;;;;;;;;;;5037043;28;20037;-67
2022/05/16 01:22:04;;;;;;;12.20;4.35;;;;;;;;;;5024948;28;20493;-68
2022/05/16 01:24:29;;;;;;;11.70;4.07;;;;;;;;;;5044203;28;20131;-66
2022/05/16 01:26:54;;;;;;;17.15;4.35;;;;;;;;;;5038364;28;20525;-67
2022/05/16 01:29:24;;;;;;;12.88;4.38;;;;;;;;;;5031208;28;20029;-66
2022/05/16 01:31:50;;;;;;;15.57;4.63;;;;;;;;;;5025884;28;20029;-67
2022/05/16 01:34:15;;;;;;;17.33;4.93;;;;;;;;;;5031776;28;20438;-66
2022/05/16 01:36:41;;;;;;;15.93;4.15;;;;;;;;;;5019970;28;20033;-67
2022/05/16 01:39:11;;;;;;;14.00;4.47;;;;;;;;;;5031462;28;20037;-69
2022/05/16 01:41:38;;;;;;;16.23;4.80;;;;;;;;;;5030481;28;20029;-68
2022/05/16 01:44:04;;;;;;;10.07;3.72;;;;;;;;;;5014496;28;20037;-68
2022/05/16 01:46:36;;;;;;;13.10;4.45;;;;;;;;;;5029353;28;20115;-68
2022/05/16 01:49:02;;;;;;;14.63;4.18;;;;;;;;;;5028099;28;20037;-67
2022/05/16 01:51:28;;;;;;;13.50;4.18;;;;;;;;;;5015561;28;20038;-67
2022/05/16 01:53:54;;;;;;;13.25;4.13;;;;;;;;;;5028710;28;20040;-67
2022/05/16 01:56:19;;;;;;;12.82;4.38;;;;;;;;;;5041367;28;20079;-67
2022/05/16 01:58:45;;;;;;;10.77;3.92;;;;;;;;;;5021281;28;20485;-67
2022/05/16 02:01:14;;;;;;;11.25;3.75;;;;;;;;;;5021626;28;20017;-67
2022/05/16 02:03:40;;;;;;;12.20;4.10;;;;;;;;;;5017086;28;20637;-67
2022/05/16 02:06:05;;;;;;;15.45;4.20;;;;;;;;;;5021270;28;20040;-67
2022/05/16 02:08:31;;;;;;;13.63;4.32;;;;;;;;;;5029555;28;20671;-66
2022/05/16 02:10:57;;;;;;;12.85;3.97;;;;;;;;;;5028269;28;20167;-66
2022/05/16 02:13:22;;;;;;;15.65;4.80;;;;;;;;;;5028798;28;20060;-67
2022/05/16 02:15:50;;;;;;;12.70;4.18;;;;;;;;;;5027915;28;20089;-68
2022/05/16 02:18:15;;;;;;;16.40;4.72;;;;;;;;;;5028686;28;20033;-66
2022/05/16 02:20:41;;;;;;;13.05;4.72;;;;;;;;;;5028198;28;20029;-67
2022/05/16 02:25:51;;;;;;;15.23;4.50;;;;;;;;;;5030267;28;20521;-67
2022/05/16 02:28:18;;;;;;;15.20;4.65;;;;;;;;;;5024841;28;20041;-66
2022/05/16 02:30:44;;;;;;;11.98;4.40;;;;;;;;;;5018756;28;20033;-67
2022/05/16 02:33:11;;;;;;;13.77;4.03;;;;;;;;;;5021813;28;20203;-65
2022/05/16 02:35:36;;;;;;;16.95;4.40;;;;;;;;;;5026421;28;20037;-66
2022/05/16 02:38:04;;;;;;;12.68;4.35;;;;;;;;;;5027102;28;20037;-66
2022/05/16 02:40:30;;;;;;;12.35;4.10;;;;;;;;;;5030399;28;20398;-66
2022/05/16 02:42:56;;;;;;;11.55;4.00;;;;;;;;;;5024452;28;20064;-66
2022/05/16 02:45:25;;;;;;;14.05;3.72;;;;;;;;;;5029807;28;20040;-67
2022/05/16 02:47:51;;;;;;;16.15;4.43;;;;;;;;;;5026795;28;20072;-66
2022/05/16 02:50:17;;;;;;;13.13;3.58;;;;;;;;;;5008035;28;20036;-66
2022/05/16 02:52:42;;;;;;;14.93;3.97;;;;;;;;;;5024545;28;20033;-67
2022/05/16 02:55:11;;;;;;;14.00;4.40;;;;;;;;;;5009022;28;20045;-68
2022/05/16 02:57:37;;;;;;;12.93;4.53;;;;;;;;;;5025525;28;20780;-67
2022/05/16 03:00:05;;;;;;;12.13;3.88;;;;;;;;;;5025763;28;20025;-67
2022/05/16 03:02:32;;;;;;;14.50;4.47;;;;;;;;;;5026165;28;20029;-67
2022/05/16 03:04:57;;;;;;;15.60;4.00;;;;;;;;;;5027749;28;20227;-66
2022/05/16 03:07:22;;;;;;;15.05;3.95;;;;;;;;;;5029080;28;20041;-67
2022/05/16 03:09:48;;;;;;;12.80;4.07;;;;;;;;;;5029935;28;20033;-67
2022/05/16 03:12:13;;;;;;;15.68;5.10;;;;;;;;;;5026965;28;20037;-67
2022/05/16 03:14:39;;;;;;;9.52;4.10;;;;;;;;;;5025747;28;20102;-67
2022/05/16 03:17:04;;;;;;;26.42;4.55;;;;;;;;;;5026008;28;20046;-66
2022/05/16 03:19:30;;;;;;;12.77;4.50;;;;;;;;;;5025944;28;20026;-67
2022/05/16 03:21:55;;;;;;;14.10;4.82;;;;;;;;;;5022080;28;20566;-68
2022/05/16 03:24:20;;;;;;;14.65;4.72;;;;;;;;;;5024623;28;20029;-67
2022/05/16 03:26:46;;;;;;;12.95;5.05;;;;;;;;;;5026434;28;20060;-67
2022/05/16 03:29:13;;;;;;;16.02;4.82;;;;;;;;;;5028600;28;20886;-68
2022/05/16 03:31:39;;;;;;;14.10;4.93;;;;;;;;;;5019812;28;20459;-66
2022/05/16 03:34:05;;;;;;;13.55;4.65;;;;;;;;;;5012959;28;20640;-66
2022/05/16 03:36:30;;;;;;;16.83;4.65;;;;;;;;;;5018968;28;20025;-66
2022/05/16 03:41:42;;;;;;;13.73;5.30;;;;;;;;;;5024540;28;20220;-67
2022/05/16 03:44:07;;;;;;;14.98;5.30;;;;;;;;;;5027066;28;20037;-67
2022/05/16 03:46:35;;;;;;;13.82;5.28;;;;;;;;;;5024961;28;20120;-67
2022/05/16 03:49:01;;;;;;;14.73;4.80;;;;;;;;;;5025595;28;20043;-67
2022/05/16 03:51:28;;;;;;;17.67;6.00;;;;;;;;;;5024080;28;20025;-66
2022/05/16 03:53:53;;;;;;;11.35;4.75;;;;;;;;;;5024137;28;20044;-66
2022/05/16 03:56:20;;;;;;;13.45;5.07;;;;;;;;;;5032023;28;20025;-67
2022/05/16 03:58:45;;;;;;;18.85;5.60;;;;;;;;;;5028624;28;20025;-67
2022/05/16 04:01:11;;;;;;;12.30;5.32;;;;;;;;;;5027444;28;20040;-66
2022/05/16 04:03:37;;;;;;;11.63;5.18;;;;;;;;;;5044856;28;20561;-68
2022/05/16 04:06:03;;;;;;;14.95;5.55;;;;;;;;;;5026729;28;20036;-67
2022/05/16 04:08:28;;;;;;;11.38;4.97;;;;;;;;;;5024551;28;20587;-67
2022/05/16 04:10:54;;;;;;;14.25;5.28;;;;;;;;;;5027018;28;22301;-66
2022/05/16 04:13:19;;;;;;;12.15;5.18;;;;;;;;;;5030566;28;20091;-67
2022/05/16 04:15:45;;;;;;;11.57;4.53;;;;;;;;;;5026903;28;20124;-67
2022/05/16 04:18:10;;;;;;;15.32;5.40;;;;;;;;;;5024947;28;20049;-67
2022/05/16 04:20:36;;;;;;;13.82;5.03;;;;;;;;;;5026966;28;20037;-66
2022/05/16 04:23:01;;;;;;;13.43;4.88;;;;;;;;;;5022430;28;20041;-67
2022/05/16 04:25:27;;;;;;;17.40;5.95;;;;;;;;;;5029690;28;20080;-65
2022/05/16 04:27:53;;;;;;;13.68;5.13;;;;;;;;;;5014267;28;20045;-67
2022/05/16 04:30:18;;;;;;;14.35;5.05;;;;;;;;;;5033054;28;20029;-66
2022/05/16 04:32:43;;;;;;;13.60;5.07;;;;;;;;;;5025557;28;20041;-66
2022/05/16 04:35:09;;;;;;;13.32;5.25;;;;;;;;;;5027606;28;20118;-66
2022/05/16 04:37:39;;;;;;;13.95;5.03;;;;;;;;;;5024532;28;20087;-67
2022/05/16 04:40:06;;;;;;;14.18;5.22;;;;;;;;;;5021672;28;20973;-66
2022/05/16 04:42:40;;;;;;;12.90;5.63;;;;;;;;;;5023100;28;20135;-66
2022/05/16 04:45:06;;;;;;;14.07;4.80;;;;;;;;;;5025837;28;20117;-68
2022/05/16 04:47:31;;;;;;;13.25;4.53;;;;;;;;;;5021060;28;20033;-67
2022/05/16 04:49:56;;;;;;;18.08;5.28;;;;;;;;;;4997685;28;20043;-67
2022/05/16 04:52:22;;;;;;;13.95;4.80;;;;;;;;;;5026025;28;20132;-67
2022/05/16 04:54:48;;;;;;;12.15;5.00;;;;;;;;;;5015381;28;20072;-70
2022/05/16 04:57:13;;;;;;;14.23;4.82;;;;;;;;;;5012944;28;20566;-69
2022/05/16 04:59:39;;;;;;;14.50;5.55;;;;;;;;;;5014793;28;20056;-68
2022/05/16 05:02:04;;;;;;;12.95;4.80;;;;;;;;;;5008661;28;20040;-66
2022/05/16 05:04:29;;;;;;;13.82;4.97;;;;;;;;;;5023393;28;20056;-65
2022/05/16 05:06:54;;;;;;;17.40;5.50;;;;;;;;;;5016753;28;21193;-67
2022/05/16 05:09:20;;;;;;;13.98;5.20;;;;;;;;;;4993191;28;20076;-65
2022/05/16 05:14:32;;;;;;;13.73;5.13;;;;;;;;;;4999692;28;20033;-67
2022/05/16 05:17:07;;;;;;;14.93;5.15;;;;;;;;;;4997979;28;20453;-68
2022/05/16 05:19:36;;;;;;;14.20;5.32;;;;;;;;;;5001836;28;20036;-68
2022/05/16 05:22:03;;;;;;;13.73;4.80;;;;;;;;;;5007030;28;20033;-68
2022/05/16 05:24:28;;;;;;;15.20;4.80;;;;;;;;;;5005320;28;20128;-68
2022/05/16 05:26:54;;;;;;;19.08;4.88;;;;;;;;;;5004184;28;20055;-66
2022/05/16 05:29:19;;;;;;;17.40;5.10;;;;;;;;;;5011451;28;20029;-68
2022/05/16 05:31:45;;;;;;;16.65;5.20;;;;;;;;;;5010138;28;20160;-67
2022/05/16 05:34:11;;;;;;;12.55;4.95;;;;;;;;;;5003764;28;20667;-69
2022/05/16 05:36:38;;;;;;;12.15;4.93;;;;;;;;;;5007420;28;20033;-68
2022/05/16 05:39:04;;;;;;;13.77;4.53;;;;;;;;;;4984597;28;20099;-69
2022/05/16 05:41:29;;;;;;;12.10;4.40;;;;;;;;;;4999438;28;20917;-68
2022/05/16 05:43:54;;;;;;;14.90;4.80;;;;;;;;;;5011697;28;20040;-67
2022/05/16 05:46:20;;;;;;;16.17;4.47;;;;;;;;;;5005054;28;20033;-68
2022/05/16 05:48:46;;;;;;;14.43;5.45;;;;;;;;;;5003515;28;20171;-68
2022/05/16 05:51:12;;;;;;;17.60;5.00;;;;;;;;;;5008708;28;20075;-69
2022/05/16 05:53:37;;;;;;;13.57;4.95;;;;;;;;;;5001749;28;20045;-69
2022/05/16 05:56:06;;;;;;;16.55;4.75;;;;;;;;;;5000768;28;20044;-69
2022/05/16 05:58:32;;;;;;;17.33;4.95;;;;;;;;;;5001775;28;20033;-67
2022/05/16 06:00:58;;;;;;;15.43;4.45;;;;;;;;;;5003432;28;21061;-68
2022/05/16 06:03:24;;;;;;;14.18;5.32;;;;;;;;;;5000012;28;20037;-68
2022/05/16 06:05:50;;;;;;;15.35;5.57;;;;;;;;;;5002467;28;20821;-69
2022/05/16 06:08:15;;;;;;;14.95;5.55;;;;;;;;;;5000684;28;20827;-67
2022/05/16 06:10:43;;;;;;;16.38;5.47;;;;;;;;;;4999243;28;20033;-69
2022/05/16 06:13:09;;;;;;;13.40;5.55;;;;;;;;;;5001041;28;20060;-67
2022/05/16 06:15:35;;;;;;;14.00;5.55;;;;;;;;;;5000515;28;20041;-68
2022/05/16 06:18:00;;;;;;;17.35;5.75;;;;;;;;;;5000708;28;20118;-68
2022/05/16 06:20:27;;;;;;;14.05;4.68;;;;;;;;;;5000362;28;20040;-69
2022/05/16 06:22:54;;;;;;;16.90;4.70;;;;;;;;;;5001443;28;20044;-68
2022/05/16 06:25:31;;;;;;;15.43;5.93;;;;;;;;;;5015471;27;20407;-68
2022/05/16 06:27:59;;;;;;;18.23;4.68;;;;;;;;;;5004939;28;20061;-69
2022/05/16 06:30:25;;;;;;;16.73;4.78;;;;;;;;;;4989257;28;20021;-67
2022/05/16 06:32:51;;;;;;;12.38;5.00;;;;;;;;;;4976645;28;20033;-68
2022/05/16 06:35:17;;;;;;;13.75;4.93;;;;;;;;;;4976620;28;22460;-67
2022/05/16 06:37:43;;;;;;;17.52;5.50;;;;;;;;;;4966363;28;20868;-67
2022/05/16 06:40:09;;;;;;;8.60;4.38;;;;;;;;;;4988078;28;20034;-68
2022/05/16 06:42:37;;;;;;;12.13;4.82;;;;;;;;;;4985909;28;20026;-68
2022/05/16 06:45:03;;;;;;;27.60;10.85;;;;;;;;;;4976566;28;21098;-68
2022/05/16 06:47:28;;;;;;;23.65;7.97;;;;;;;;;;4990781;28;20895;-68
2022/05/16 06:49:56;;;;;;;15.32;6.53;;;;;;;;;;4991181;28;20109;-68
2022/05/16 06:52:24;;;;;;;20.88;8.55;;;;;;;;;;4990305;28;20056;-67
2022/05/16 06:54:49;;;;;;;16.40;6.07;;;;;;;;;;4991797;28;20043;-68
2022/05/16 06:57:15;;;;;;;15.80;6.10;;;;;;;;;;4990737;28;20046;-68
2022/05/16 06:59:41;;;;;;;18.13;5.28;;;;;;;;;;4990822;28;20114;-67
2022/05/16 07:02:06;;;;;;;15.02;5.90;;;;;;;;;;4994827;28;20042;-68
2022/05/16 07:04:36;;;;;;;15.63;5.13;;;;;;;;;;4989451;28;20054;-68
2022/05/16 07:07:08;;;;;;;16.73;5.18;;;;;;;;;;4990869;28;20038;-67
2022/05/16 07:09:36;;;;;;;23.08;5.25;;;;;;;;;;5005579;28;20124;-67
2022/05/16 07:12:01;;;;;;;17.67;5.60;;;;;;;;;;5017952;28;20710;-69
2022/05/16 07:14:29;;;;;;;16.67;5.00;;;;;;;;;;4999627;28;20042;-66
2022/05/16 07:16:56;;;;;;;17.27;5.43;;;;;;;;;;4980764;28;21648;-67
2022/05/16 07:19:24;;;;;;;13.50;4.63;;;;;;;;;;4995587;28;20792;-68
2022/05/16 07:21:52;;;;;;;11.30;4.30;;;;;;;;;;4993675;28;20045;-66
2022/05/16 07:24:17;;;;;;;11.73;4.45;;;;;;;;;;5002581;28;22155;-67
2022/05/16 07:29:27;;;;;;;11.57;5.13;;;;;;;;;;5005784;28;20572;-67
2022/05/16 07:31:55;;;;;;;10.90;5.13;;;;;;;;;;5016873;28;20037;-67
2022/05/16 07:34:20;;;;;;;15.00;4.90;;;;;;;;;;5009805;28;20838;-71
2022/05/16 07:36:48;;;;;;;12.27;5.55;;;;;;;;;;5001733;28;20044;-68
2022/05/16 07:39:13;;;;;;;13.75;5.60;;;;;;;;;;5007534;28;20441;-68
2022/05/16 07:41:39;;;;;;;13.10;5.50;;;;;;;;;;5004541;28;20041;-69
2022/05/16 07:44:04;;;;;;;16.40;6.13;;;;;;;;;;5001905;28;20033;-69
2022/05/16 07:46:34;;;;;;;19.75;7.22;;;;;;;;;;4994840;28;20068;-68
2022/05/16 07:49:02;;;;;;;18.30;7.88;;;;;;;;;;5014783;28;20146;-68
2022/05/16 07:51:28;;;;;;;22.27;7.22;;;;;;;;;;4997077;28;20037;-68
2022/05/16 07:53:53;;;;;;;22.38;7.05;;;;;;;;;;5001224;28;20045;-69
2022/05/16 07:56:18;;;;;;;18.20;7.30;;;;;;;;;;5008845;28;20303;-69
2022/05/16 07:58:44;;;;;;;22.25;7.85;;;;;;;;;;4993433;28;20872;-69
2022/05/16 08:01:09;;;;;;;24.10;7.45;;;;;;;;;;5002068;28;20272;-67
2022/05/16 08:03:37;;;;;;;22.20;7.72;;;;;;;;;;4994494;28;20445;-69
2022/05/16 08:06:03;;;;;;;20.83;7.32;;;;;;;;;;4994128;28;20083;-68
2022/05/16 08:11:13;;;;;;;13.57;6.28;;;;;;;;;;4998993;28;20767;-68
2022/05/16 08:13:44;;;;;;;15.70;6.53;;;;;;;;;;4997051;28;20139;-68
2022/05/16 08:16:09;;;;;;;12.77;6.50;;;;;;;;;;4996977;28;20943;-68
2022/05/16 08:18:35;;;;;;;15.30;5.60;;;;;;;;;;4995745;28;20060;-70
2022/05/16 08:21:08;;;;;;;9.55;5.43;;;;;;;;;;4998552;28;20037;-69
2022/05/16 08:23:36;;;;;;;13.15;5.95;;;;;;;;;;4993097;28;20154;-70
2022/05/16 08:26:04;;;;;;;11.88;5.75;;;;;;;;;;4993886;28;20042;-66
2022/05/16 08:28:32;;;;;;;10.65;5.65;;;;;;;;;;5004680;28;20029;-67
2022/05/16 08:30:58;;;;;;;12.77;6.88;;;;;;;;;;4990493;28;20038;-67
2022/05/16 08:33:26;;;;;;;11.88;6.97;;;;;;;;;;4989003;28;20138;-67
2022/05/16 08:41:27;;;;;;;35.53;18.88;;;;;;;;;;4970689;28;22407;-66
2022/05/16 08:44:07;;;;;;;11.40;7.50;;;;;;;;;;4970694;28;20100;-66
2022/05/16 08:46:37;;;;;;;10.23;5.60;;;;;;;;;;4972636;28;20045;-66
2022/05/16 08:49:07;;;;;;;11.23;5.70;;;;;;;;;;4969429;28;20143;-67
2022/05/16 08:51:33;;;;;;;9.63;6.30;;;;;;;;;;4972419;28;22416;-66
2022/05/16 08:54:15;;;;;;;14.00;7.38;;;;;;;;;;4965064;28;20121;-65
2022/05/16 08:56:44;;;;;;;13.18;7.53;;;;;;;;;;4966477;28;20133;-67
2022/05/16 08:59:15;;;;;;;15.18;6.43;;;;;;;;;;4965499;28;20157;-65
2022/05/16 09:01:44;;;;;;;13.52;8.50;;;;;;;;;;4973112;28;20067;-66
2022/05/16 09:04:16;;;;;;;10.52;8.02;;;;;;;;;;4984784;28;22443;-65
2022/05/16 09:06:49;;;;;;;13.23;8.40;;;;;;;;;;4985529;28;20846;-65
2022/05/16 09:09:22;;;;;;;19.80;7.38;;;;;;;;;;4989966;28;20128;-65
2022/05/16 09:12:05;;;;;;;9.27;5.70;;;;;;;;;;4988585;28;20034;-66
2022/05/16 09:14:39;;;;;;;11.95;5.60;;;;;;;;;;4988041;28;20108;-66
2022/05/16 09:17:04;;;;;;;;;;;;;;;;;;4992175;28;20641;-66
2022/05/16 09:19:53;;;;;;;10.32;4.78;;;;;;;;;;4984026;28;20020;-66
2022/05/16 09:22:24;;;;;;;11.25;5.15;;;;;;;;;;4990403;28;20903;-69
2022/05/16 09:24:52;;;;;;;9.40;5.07;;;;;;;;;;5006580;28;20042;-67
2022/05/16 09:28:34;;;;;;;10.82;5.38;;;;;;;;;;4989240;28;20033;-67
2022/05/16 09:30:06;;;;;;;12.18;5.30;;;;;;;;;;4970895;28;20091;-67
2022/05/16 09:32:37;;;;;;;9.02;5.30;;;;;;;;;;4968267;28;20092;-66
2022/05/16 09:35:04;;;;;;;9.90;5.28;;;;;;;;;;4971253;28;20092;-67
2022/05/16 09:37:32;;;;;;;8.93;5.65;;;;;;;;;;4969532;28;20855;-66
2022/05/16 09:39:57;;;;;;;10.65;5.25;;;;;;;;;;4971884;28;20041;-65
2022/05/16 09:42:27;;;;;;;7.75;4.88;;;;;;;;;;4966464;28;20603;-67
2022/05/16 09:45:02;;;;;;;12.27;6.03;;;;;;;;;;4968839;28;20053;-67
2022/05/16 09:47:28;;;;;;;13.23;6.40;;;;;;;;;;5000726;28;20037;-71
2022/05/16 09:50:02;;;;;;;13.70;7.32;;;;;;;;;;4966670;28;20136;-69
2022/05/16 09:52:28;;;;;;;13.02;7.90;;;;;;;;;;4969766;28;20103;-69
2022/05/16 09:55:07;;;;;;;14.85;8.15;;;;;;;;;;4969904;28;20177;-67
2022/05/16 09:57:43;;;;;;;15.65;8.15;;;;;;;;;;4978211;28;20026;-67
2022/05/16 10:00:16;;;;;;;17.40;8.93;;;;;;;;;;4963416;28;20784;-67
2022/05/16 10:02:41;;;;;;;16.73;9.20;;;;;;;;;;4975715;28;20124;-68
2022/05/16 10:05:10;;;;;;;16.17;9.55;;;;;;;;;;4931957;28;20048;-68
2022/05/16 10:07:38;;;;;;;21.23;9.60;;;;;;;;;;4980082;28;20111;-65
2022/05/16 10:10:07;;;;;;;15.73;9.70;;;;;;;;;;4968090;28;20853;-67
2022/05/16 10:12:32;;;;;;;19.40;10.60;;;;;;;;;;4966771;28;20473;-65
2022/05/16 10:14:59;;;;;;;16.55;9.93;;;;;;;;;;4977170;28;20045;-63
2022/05/16 10:17:27;;;;;;;17.65;9.90;;;;;;;;;;4973466;28;20041;-65
2022/05/16 10:19:57;;;;;;;16.85;10.65;;;;;;;;;;4966833;28;20125;-63
2022/05/16 10:22:26;;;;;;;14.40;10.30;;;;;;;;;;4970778;28;20628;-62
2022/05/16 10:24:55;;;;;;;18.67;11.23;;;;;;;;;;4946898;28;20236;-63
2022/05/16 10:27:23;;;;;;;16.75;10.20;;;;;;;;;;4968352;28;20034;-63
2022/05/16 10:29:51;;;;;;;16.75;11.40;;;;;;;;;;4966921;28;20038;-64
2022/05/16 10:35:24;;;;;;;15.68;12.23;;;;;;;;;;4966859;28;20222;-65
2022/05/16 10:37:52;;;;;;;19.38;12.18;;;;;;;;;;4967156;28;20200;-64
2022/05/16 10:40:28;;;;;;;20.70;11.90;;;;;;;;;;4966721;28;20121;-64
2022/05/16 10:43:04;;;;;;;20.55;12.55;;;;;;;;;;4965407;28;20735;-65
2022/05/16 10:45:31;;;;;;;15.63;11.90;;;;;;;;;;4966965;28;20049;-65
2022/05/16 10:48:08;;;;;;;20.92;13.23;;;;;;;;;;4958692;28;20750;-65
2022/05/16 10:50:53;;;;;;;20.60;12.45;;;;;;;;;;4977171;28;20569;-64
2022/05/16 10:53:42;;;;;;;18.88;12.20;;;;;;;;;;4967004;28;20349;-65
2022/05/16 10:56:17;;;;;;;18.90;12.95;;;;;;;;;;4967429;28;20076;-64
2022/05/16 10:58:54;;;;;;;20.63;13.32;;;;;;;;;;4968060;28;20069;-63
2022/05/16 11:01:21;;;;;;;22.45;13.23;;;;;;;;;;4963145;28;20587;-63
2022/05/16 11:03:55;;;;;;;23.95;13.48;;;;;;;;;;4962739;28;20045;-66
2022/05/16 11:06:26;;;;;;;21.05;14.30;;;;;;;;;;4957835;28;20388;-64
2022/05/16 11:08:55;;;;;;;18.45;13.35;;;;;;;;;;4968165;28;20045;-64
2022/05/16 11:11:26;;;;;;;22.02;13.25;;;;;;;;;;4980950;28;20565;-64
2022/05/16 11:13:55;;;;;;;27.02;16.58;;;;;;;;;;4972849;28;20125;-64
2022/05/16 11:16:31;;;;;;;27.95;16.75;;;;;;;;;;4951786;28;20038;-63
2022/05/16 11:19:03;;;;;;;32.35;16.85;;;;;;;;;;4970846;28;20034;-64
2022/05/16 11:21:28;;;;;;;34.05;13.13;;;;;;;;;;4981504;28;20041;-66
2022/05/16 11:23:59;;;;;;;36.53;13.60;;;;;;;;;;4988985;28;20049;-67
2022/05/16 11:26:54;;;;;;;36.28;11.98;;;;;;;;;;4966847;28;20033;-66
2022/05/16 11:29:28;;;;;;;32.90;13.00;;;;;;;;;;4969719;28;20038;-66
2022/05/16 11:32:06;;;;;;;38.97;15.13;;;;;;;;;;4960605;28;20509;-64
2022/05/16 11:34:46;;;;;;;41.50;16.58;;;;;;;;;;4970766;28;20462;-65
2022/05/16 11:37:23;;;;;;;39.88;17.73;;;;;;;;;;4970318;28;20436;-66
2022/05/16 11:39:53;;;;;;;37.85;17.08;;;;;;;;;;4970411;28;20037;-65
2022/05/16 11:42:26;;;;;;;34.75;17.77;;;;;;;;;;4970338;28;20238;-66
2022/05/16 11:44:55;;;;;;;33.50;18.50;;;;;;;;;;4971166;28;20057;-63
2022/05/16 11:47:25;;;;;;;34.92;18.70;;;;;;;;;;4982505;28;20532;-64
2022/05/16 11:50:16;;;;;;;34.65;19.35;;;;;;;;;;4971943;28;20040;-66
2022/05/16 11:52:44;;;;;;;33.08;18.05;;;;;;;;;;4974160;28;20841;-66
2022/05/16 12:00:54;;;;;;;41.50;17.25;;;;;;;;;;4967898;28;20041;-67
2022/05/16 12:03:20;;;;;;;35.05;17.58;;;;;;;;;;4962593;28;20424;-65
2022/05/16 12:05:50;;;;;;;34.63;18.50;;;;;;;;;;4981779;28;20025;-69
2022/05/16 12:08:34;;;;;;;30.67;18.13;;;;;;;;;;4970351;28;20041;-66
2022/05/16 12:11:03;;;;;;;38.55;19.00;;;;;;;;;;4975344;28;20037;-69
2022/05/16 12:13:31;;;;;;;39.60;18.83;;;;;;;;;;4976149;28;20106;-69
2022/05/16 12:16:06;;;;;;;39.92;18.35;;;;;;;;;;4992387;28;20040;-70
2022/05/16 12:18:33;;;;;;;43.53;17.48;;;;;;;;;;5003052;28;21116;-69
2022/05/16 12:21:01;;;;;;;44.28;18.15;;;;;;;;;;4995465;28;20061;-69
2022/05/16 12:23:48;;;;;;;39.00;17.63;;;;;;;;;;5000302;28;20041;-66
2022/05/16 12:26:27;;;;;;;35.53;16.58;;;;;;;;;;5001105;28;20140;-70
2022/05/16 12:29:11;;;;;;;41.10;17.20;;;;;;;;;;5010286;28;20100;-69
2022/05/16 12:31:40;;;;;;;42.50;18.17;;;;;;;;;;4997602;28;20021;-71
2022/05/16 12:34:05;;;;;;;40.85;16.70;;;;;;;;;;4993566;28;21834;-71
2022/05/16 12:36:34;;;;;;;34.08;15.18;;;;;;;;;;4994122;28;20109;-70
2022/05/16 12:39:06;;;;;;;39.88;14.57;;;;;;;;;;4965289;28;20032;-69
2022/05/16 12:41:44;;;;;;;39.58;14.80;;;;;;;;;;4975834;28;20033;-69
2022/05/16 12:44:18;;;;;;;37.78;14.40;;;;;;;;;;4983555;28;22373;-68
2022/05/16 12:46:44;;;;;;;37.53;14.70;;;;;;;;;;4987916;28;21112;-67
2022/05/16 12:49:11;;;;;;;36.45;14.50;;;;;;;;;;4989417;28;20046;-64
2022/05/16 12:51:56;;;;;;;40.63;14.40;;;;;;;;;;4991412;28;20030;-67
2022/05/16 12:54:22;;;;;;;38.00;14.32;;;;;;;;;;4987895;28;20158;-67
2022/05/16 12:56:47;;;;;;;42.55;14.40;;;;;;;;;;4991050;28;20132;-67
2022/05/16 12:59:32;;;;;;;36.72;13.82;;;;;;;;;;5002488;28;20037;-70
2022/05/16 13:02:29;;;;;;;42.10;13.68;;;;;;;;;;5001531;28;20052;-68
2022/05/16 13:04:57;;;;;;;31.23;12.75;;;;;;;;;;4957683;28;20091;-66
2022/05/16 13:07:26;;;;;;;33.88;12.73;;;;;;;;;;4992278;28;20061;-67
2022/05/16 13:09:54;;;;;;;32.22;11.93;;;;;;;;;;4991406;28;20733;-66
2022/05/16 13:12:40;;;;;;;36.38;12.00;;;;;;;;;;4979499;28;20483;-66
2022/05/16 13:15:27;;;;;;;28.58;10.95;;;;;;;;;;4984345;28;20899;-65
2022/05/16 13:17:54;;;;;;;31.95;11.32;;;;;;;;;;5001169;28;20520;-65
2022/05/16 13:20:21;;;;;;;34.08;11.15;;;;;;;;;;4987485;28;20068;-67
2022/05/16 13:22:50;;;;;;;34.38;10.57;;;;;;;;;;4985609;28;20037;-64
2022/05/16 13:25:17;;;;;;;36.60;10.18;;;;;;;;;;4986840;28;20135;-65
2022/05/16 13:30:36;;;;;;;32.58;9.95;;;;;;;;;;4976439;28;20278;-66
2022/05/16 13:33:04;;;;;;;30.67;9.45;;;;;;;;;;4983106;28;20040;-64
2022/05/16 13:35:29;;;;;;;41.47;10.68;;;;;;;;;;4984844;28;20486;-64
2022/05/16 13:37:57;;;;;;;34.00;10.25;;;;;;;;;;4987806;28;20037;-65
2022/05/16 13:40:27;;;;;;;30.77;10.00;;;;;;;;;;4985605;28;20029;-66
2022/05/16 13:42:56;;;;;;;31.48;10.15;;;;;;;;;;4981241;28;20044;-65
2022/05/16 13:45:26;;;;;;;32.60;9.85;;;;;;;;;;4987096;28;20041;-66
2022/05/16 13:47:52;;;;;;;29.17;10.50;;;;;;;;;;4987238;28;20473;-64
2022/05/16 13:50:29;;;;;;;31.33;9.93;;;;;;;;;;4987602;28;20458;-64
2022/05/16 13:52:55;;;;;;;28.88;9.95;;;;;;;;;;4987578;28;20164;-64
2022/05/16 13:55:20;;;;;;;33.85;10.70;;;;;;;;;;4987264;28;20173;-64
2022/05/16 13:57:45;;;;;;;32.13;9.70;;;;;;;;;;4986328;28;20796;-64
2022/05/16 14:00:25;;;;;;;35.35;9.70;;;;;;;;;;4991014;28;20445;-65
2022/05/16 14:02:55;;;;;;;29.20;9.00;;;;;;;;;;4997283;28;20968;-62
2022/05/16 14:05:24;;;;;;;30.90;8.95;;;;;;;;;;4983236;28;20143;-65
2022/05/16 14:07:49;;;;;;;29.63;8.85;;;;;;;;;;4989348;28;20173;-62
2022/05/16 14:10:16;;;;;;;34.65;9.10;;;;;;;;;;4985719;28;20037;-70
2022/05/16 14:12:44;;;;;;;28.58;8.48;;;;;;;;;;4989174;28;20037;-64
2022/05/16 14:15:32;;;;;;;32.17;8.50;;;;;;;;;;4980774;28;20835;-61
2022/05/16 14:17:58;;;;;;;31.27;8.43;;;;;;;;;;4969301;28;20034;-64
2022/05/16 14:20:24;;;;;;;32.83;7.82;;;;;;;;;;4988183;28;20083;-63
2022/05/16 14:22:51;;;;;;;29.30;7.32;;;;;;;;;;5002466;28;20029;-64
2022/05/16 14:25:28;;;;;;;28.77;7.53;;;;;;;;;;4968929;28;20556;-64
2022/05/16 14:27:58;;;;;;;29.77;7.28;;;;;;;;;;4971111;28;20038;-62
2022/05/16 14:30:24;;;;;;;32.95;7.57;;;;;;;;;;4969980;28;20041;-64
2022/05/16 14:33:01;;;;;;;25.77;6.95;;;;;;;;;;4968108;28;20111;-63
2022/05/16 14:35:29;;;;;;;30.80;7.63;;;;;;;;;;4974103;28;20065;-64
2022/05/16 14:38:00;;;;;;;23.10;6.57;;;;;;;;;;4971755;28;20449;-62
2022/05/16 14:40:34;;;;;;;26.15;7.03;;;;;;;;;;4962655;28;20125;-64
2022/05/16 14:43:07;;;;;;;32.33;7.15;;;;;;;;;;4967607;28;20040;-63
2022/05/16 14:48:27;;;;;;;29.23;7.32;;;;;;;;;;4969021;28;20037;-62
2022/05/16 14:50:52;;;;;;;30.80;7.40;;;;;;;;;;4971871;28;20139;-63
2022/05/16 14:53:20;;;;;;;30.73;7.30;;;;;;;;;;4971142;28;20033;-62
2022/05/16 14:55:49;;;;;;;30.48;6.25;;;;;;;;;;4968305;28;20042;-64
2022/05/16 14:58:15;;;;;;;25.27;6.20;;;;;;;;;;4968813;28;20038;-62
2022/05/16 15:06:10;;;;;;;28.90;6.88;;;;;;;;;;4979546;28;20536;-65
2022/05/16 15:08:39;;;;;;;29.13;6.97;;;;;;;;;;4971278;28;20513;-63
2022/05/16 15:11:04;;;;;;;28.88;7.13;;;;;;;;;;4959975;28;20732;-63
2022/05/16 15:13:30;;;;;;;30.35;7.10;;;;;;;;;;4980904;28;20038;-62
2022/05/16 15:15:56;;;;;;;32.10;6.75;;;;;;;;;;4970244;28;20034;-64
2022/05/16 15:18:21;;;;;;;24.70;6.47;;;;;;;;;;4968417;28;20114;-64